Time;durP1;ratioP1;P1;durP2;ratioP2;P2;SDS_P1;SDS_P2;PMS_P1;PMS_P2;Temp;Humidity;BMP_temperature;BMP_pressure;BME280_temperature;BME280_humidity;BME280_pressure;Samples;Min_cycle;Max_cycle;Signal;HPM_P1;HPM_P2
2022/10/08 00:00:15;;;;;;;24.70;15.40;;;;;;;;;;5095768;28;20070;-42
2022/10/08 00:02:40;;;;;;;23.33;15.18;;;;;;;;;;5095000;28;20028;-42
2022/10/08 00:05:06;;;;;;;22.77;14.27;;;;;;;;;;5095456;28;20026;-40
2022/10/08 00:07:31;;;;;;;23.88;14.52;;;;;;;;;;5095664;28;20471;-43
2022/10/08 00:09:57;;;;;;;18.77;13.23;;;;;;;;;;5095503;28;20145;-43
2022/10/08 00:12:22;;;;;;;23.42;14.30;;;;;;;;;;5095490;28;20020;-42
2022/10/08 00:14:47;;;;;;;24.73;15.10;;;;;;;;;;5095411;28;20036;-40
2022/10/08 00:17:12;;;;;;;21.88;14.63;;;;;;;;;;5095460;28;20384;-42
2022/10/08 00:19:37;;;;;;;20.77;14.40;;;;;;;;;;5095262;28;20052;-43
2022/10/08 00:22:03;;;;;;;26.10;14.33;;;;;;;;;;5095566;28;20241;-43
2022/10/08 00:24:28;;;;;;;22.38;13.70;;;;;;;;;;5095339;28;20229;-43
2022/10/08 00:26:53;;;;;;;22.48;13.80;;;;;;;;;;5095257;28;20020;-40
2022/10/08 00:29:19;;;;;;;22.35;13.43;;;;;;;;;;5095302;28;20099;-42
2022/10/08 00:31:46;;;;;;;22.67;14.48;;;;;;;;;;5095298;28;20020;-42
2022/10/08 00:34:14;;;;;;;24.40;13.70;;;;;;;;;;5094778;28;20032;-43
2022/10/08 00:36:39;;;;;;;21.23;15.02;;;;;;;;;;5095098;28;20118;-42
2022/10/08 00:39:14;;;;;;;27.80;14.80;;;;;;;;;;5095336;28;20070;-44
2022/10/08 00:41:40;;;;;;;23.02;15.82;;;;;;;;;;5095039;28;20019;-43
2022/10/08 00:44:24;;;;;;;27.05;15.73;;;;;;;;;;5095171;28;20352;-44
2022/10/08 00:46:49;;;;;;;22.90;14.75;;;;;;;;;;5094570;28;20016;-43
2022/10/08 00:49:17;;;;;;;29.02;15.85;;;;;;;;;;5094800;28;20464;-42
2022/10/08 00:51:43;;;;;;;23.25;15.35;;;;;;;;;;5095228;28;20024;-38
2022/10/08 00:54:08;;;;;;;26.10;15.82;;;;;;;;;;5076604;28;20040;-41
2022/10/08 00:56:34;;;;;;;23.83;16.48;;;;;;;;;;5094745;28;20027;-42
2022/10/08 00:59:01;;;;;;;25.77;17.10;;;;;;;;;;5094284;28;20030;-43
2022/10/08 01:01:28;;;;;;;22.95;15.70;;;;;;;;;;5093700;28;20466;-43
2022/10/08 01:03:53;;;;;;;25.52;18.08;;;;;;;;;;5094905;28;20028;-43
2022/10/08 01:06:21;;;;;;;26.55;16.88;;;;;;;;;;5094738;28;20027;-44
2022/10/08 01:08:58;;;;;;;26.02;17.13;;;;;;;;;;5094475;28;20038;-43
2022/10/08 01:11:30;;;;;;;25.70;16.90;;;;;;;;;;5094370;28;20081;-43
2022/10/08 01:13:59;;;;;;;27.10;18.27;;;;;;;;;;5093095;28;20073;-41
2022/10/08 01:16:37;;;;;;;31.80;18.15;;;;;;;;;;5094414;28;20052;-43
2022/10/08 01:19:08;;;;;;;28.17;17.40;;;;;;;;;;5094370;28;20028;-44
2022/10/08 01:21:46;;;;;;;30.05;16.75;;;;;;;;;;5094228;28;20459;-44
2022/10/08 01:25:31;;;;;;;29.73;18.17;;;;;;;;;;5094066;28;20477;-42
2022/10/08 01:27:23;;;;;;;26.83;16.48;;;;;;;;;;5093772;28;20067;-42
2022/10/08 01:29:49;;;;;;;;;;;;;;;;;;5094855;28;20023;-42
2022/10/08 01:32:19;;;;;;;32.72;17.35;;;;;;;;;;5094088;28;19977;-40
2022/10/08 01:34:49;;;;;;;31.38;17.60;;;;;;;;;;5093731;28;20024;-42
2022/10/08 01:37:25;;;;;;;31.20;16.92;;;;;;;;;;5093724;28;20024;-44
2022/10/08 01:39:52;;;;;;;33.72;18.77;;;;;;;;;;5093832;28;20034;-43
2022/10/08 01:42:19;;;;;;;28.10;18.15;;;;;;;;;;5093961;28;20056;-44
2022/10/08 01:44:46;;;;;;;30.48;18.20;;;;;;;;;;5093985;28;20069;-43
2022/10/08 01:47:14;;;;;;;25.85;17.67;;;;;;;;;;5093719;28;20111;-43
2022/10/08 01:49:42;;;;;;;28.40;17.30;;;;;;;;;;5093680;28;20082;-42
2022/10/08 01:52:13;;;;;;;31.02;17.55;;;;;;;;;;5093711;28;20352;-43
2022/10/08 01:54:39;;;;;;;28.42;17.63;;;;;;;;;;5093479;28;20122;-43
2022/10/08 01:57:05;;;;;;;29.05;16.45;;;;;;;;;;5093595;28;20048;-43
2022/10/08 01:59:38;;;;;;;26.95;18.20;;;;;;;;;;5093505;28;20498;-41
2022/10/08 02:02:29;;;;;;;27.15;17.50;;;;;;;;;;5093414;28;20028;-43
2022/10/08 02:04:55;;;;;;;24.70;16.35;;;;;;;;;;5088266;28;20467;-43
2022/10/08 02:07:22;;;;;;;23.25;16.63;;;;;;;;;;5093343;28;20124;-43
2022/10/08 02:09:52;;;;;;;24.40;15.57;;;;;;;;;;5093556;28;20367;-43
2022/10/08 02:12:17;;;;;;;26.73;17.15;;;;;;;;;;5093207;28;20107;-41
2022/10/08 02:14:46;;;;;;;23.58;16.45;;;;;;;;;;5093049;28;20494;-43
2022/10/08 02:17:30;;;;;;;27.95;15.60;;;;;;;;;;5093456;28;20035;-43
2022/10/08 02:20:01;;;;;;;22.27;15.65;;;;;;;;;;5093737;28;20032;-41
2022/10/08 02:22:38;;;;;;;23.52;14.80;;;;;;;;;;5093195;28;20024;-42
2022/10/08 02:25:11;;;;;;;18.58;13.82;;;;;;;;;;5092733;28;20023;-40
2022/10/08 02:27:48;;;;;;;20.25;13.75;;;;;;;;;;5093295;28;20035;-43
2022/10/08 02:30:13;;;;;;;20.77;13.60;;;;;;;;;;5093215;28;20024;-43
2022/10/08 02:32:55;;;;;;;19.38;13.02;;;;;;;;;;5093264;28;20355;-43
2022/10/08 02:35:24;;;;;;;23.02;15.07;;;;;;;;;;5092827;28;20107;-42
2022/10/08 02:38:10;;;;;;;23.65;15.10;;;;;;;;;;5093038;28;20020;-42
2022/10/08 02:40:37;;;;;;;24.92;14.73;;;;;;;;;;5092974;28;20102;-43
2022/10/08 02:43:11;;;;;;;23.70;14.43;;;;;;;;;;5093061;28;20020;-42
2022/10/08 02:45:45;;;;;;;20.10;13.43;;;;;;;;;;5092866;28;20035;-42
2022/10/08 02:48:13;;;;;;;18.17;12.95;;;;;;;;;;5092468;28;20410;-43
2022/10/08 02:50:40;;;;;;;18.92;13.05;;;;;;;;;;5093140;28;20455;-43
2022/10/08 02:53:05;;;;;;;17.60;12.88;;;;;;;;;;5092973;28;20097;-41
2022/10/08 02:55:40;;;;;;;19.60;12.88;;;;;;;;;;5092897;28;20436;-42
2022/10/08 02:58:08;;;;;;;23.60;14.55;;;;;;;;;;5092765;28;20043;-43
2022/10/08 03:00:36;;;;;;;21.77;14.65;;;;;;;;;;5092578;28;20013;-42
2022/10/08 03:03:06;;;;;;;22.90;15.23;;;;;;;;;;5092974;28;20024;-44
2022/10/08 03:05:32;;;;;;;23.05;15.45;;;;;;;;;;5092735;28;20047;-43
2022/10/08 03:07:57;;;;;;;24.58;17.73;;;;;;;;;;5092783;28;20012;-41
2022/10/08 03:10:24;;;;;;;26.48;15.98;;;;;;;;;;5092748;28;20027;-43
2022/10/08 03:12:51;;;;;;;23.20;15.75;;;;;;;;;;5092568;28;20728;-44
2022/10/08 03:15:16;;;;;;;24.92;15.82;;;;;;;;;;5092319;28;20059;-43
2022/10/08 03:17:43;;;;;;;23.77;14.85;;;;;;;;;;5092735;28;20012;-42
2022/10/08 03:20:09;;;;;;;21.67;15.50;;;;;;;;;;5092879;28;20020;-43
2022/10/08 03:22:35;;;;;;;26.00;15.75;;;;;;;;;;5092636;28;20077;-43
2022/10/08 03:25:00;;;;;;;22.02;14.60;;;;;;;;;;5092487;28;20020;-42
2022/10/08 03:27:25;;;;;;;24.02;15.50;;;;;;;;;;5092875;28;20031;-44
2022/10/08 03:29:55;;;;;;;22.40;15.48;;;;;;;;;;5092605;28;20364;-43
2022/10/08 03:32:21;;;;;;;23.90;16.33;;;;;;;;;;5092611;28;20459;-43
2022/10/08 03:34:46;;;;;;;23.42;15.38;;;;;;;;;;5092488;28;20038;-44
2022/10/08 03:37:11;;;;;;;24.13;15.65;;;;;;;;;;5092986;28;20020;-44
2022/10/08 03:39:37;;;;;;;21.67;14.45;;;;;;;;;;5096194;28;20020;-41
2022/10/08 03:42:02;;;;;;;23.97;14.63;;;;;;;;;;5096107;28;20099;-44
2022/10/08 03:44:27;;;;;;;21.52;15.20;;;;;;;;;;5095834;28;20269;-43
2022/10/08 03:46:52;;;;;;;21.38;14.65;;;;;;;;;;5095991;28;20023;-43
2022/10/08 03:49:18;;;;;;;23.77;14.55;;;;;;;;;;5095696;28;20482;-43
2022/10/08 03:51:43;;;;;;;24.27;14.75;;;;;;;;;;5096005;28;20423;-42
2022/10/08 03:54:08;;;;;;;23.57;15.43;;;;;;;;;;5095830;28;20028;-44
2022/10/08 03:56:34;;;;;;;25.85;14.88;;;;;;;;;;5095954;28;20241;-43
2022/10/08 03:58:59;;;;;;;21.08;14.60;;;;;;;;;;5095607;28;20016;-44
2022/10/08 04:01:26;;;;;;;22.40;15.20;;;;;;;;;;5095495;28;20530;-43
2022/10/08 04:03:51;;;;;;;22.90;14.32;;;;;;;;;;5095736;28;20043;-43
2022/10/08 04:06:16;;;;;;;21.90;13.60;;;;;;;;;;5095661;28;20498;-42
2022/10/08 04:08:42;;;;;;;24.60;14.48;;;;;;;;;;5095461;28;20020;-42
2022/10/08 04:11:08;;;;;;;18.55;13.13;;;;;;;;;;5095538;28;20023;-42
2022/10/08 04:13:34;;;;;;;20.55;13.60;;;;;;;;;;5095329;28;20387;-42
2022/10/08 04:16:03;;;;;;;21.58;13.13;;;;;;;;;;5095199;28;20032;-43
2022/10/08 04:18:28;;;;;;;;;;;;;;;;;;5095982;28;20348;-41
2022/10/08 04:20:57;;;;;;;22.70;13.82;;;;;;;;;;5095897;28;20010;-41
2022/10/08 04:23:22;;;;;;;22.08;13.93;;;;;;;;;;5095400;28;20028;-42
2022/10/08 04:25:48;;;;;;;18.02;13.63;;;;;;;;;;5095229;28;20024;-42
2022/10/08 04:28:13;;;;;;;17.73;12.98;;;;;;;;;;5095820;28;20332;-43
2022/10/08 04:30:39;;;;;;;23.30;14.80;;;;;;;;;;5095092;28;20031;-43
2022/10/08 04:33:04;;;;;;;21.10;14.35;;;;;;;;;;5095337;28;20512;-43
2022/10/08 04:35:29;;;;;;;25.30;15.30;;;;;;;;;;5095186;28;20068;-41
2022/10/08 04:37:55;;;;;;;23.27;14.60;;;;;;;;;;5095134;28;20016;-43
2022/10/08 04:40:20;;;;;;;21.67;13.57;;;;;;;;;;5095261;28;20020;-41
2022/10/08 04:42:49;;;;;;;20.30;14.00;;;;;;;;;;5095003;28;20028;-42
2022/10/08 04:45:14;;;;;;;19.50;13.50;;;;;;;;;;5094812;28;20637;-43
2022/10/08 04:47:41;;;;;;;20.00;14.25;;;;;;;;;;5095137;28;20024;-43
2022/10/08 04:50:07;;;;;;;22.75;14.07;;;;;;;;;;5094776;28;20055;-43
2022/10/08 04:52:32;;;;;;;21.77;13.20;;;;;;;;;;5095080;28;20074;-42
2022/10/08 04:54:57;;;;;;;21.70;14.57;;;;;;;;;;5094440;28;20043;-44
2022/10/08 04:57:23;;;;;;;21.77;13.45;;;;;;;;;;5094583;28;20463;-43
2022/10/08 04:59:48;;;;;;;18.88;13.32;;;;;;;;;;5094686;28;20020;-43
2022/10/08 05:02:13;;;;;;;21.45;14.07;;;;;;;;;;5094614;28;20020;-44
2022/10/08 05:04:38;;;;;;;23.73;14.32;;;;;;;;;;5094619;28;20122;-41
2022/10/08 05:07:03;;;;;;;22.38;14.43;;;;;;;;;;5094611;28;20022;-43
2022/10/08 05:09:29;;;;;;;19.37;14.00;;;;;;;;;;5094592;28;20043;-42
2022/10/08 05:11:54;;;;;;;24.58;15.50;;;;;;;;;;5094400;28;20251;-44
2022/10/08 05:14:19;;;;;;;22.33;14.07;;;;;;;;;;5094197;28;20043;-43
2022/10/08 05:16:44;;;;;;;21.83;14.13;;;;;;;;;;5094304;28;20772;-43
2022/10/08 05:19:10;;;;;;;21.50;14.63;;;;;;;;;;5094241;28;20016;-43
2022/10/08 05:21:35;;;;;;;23.35;14.02;;;;;;;;;;5094124;28;20031;-43
2022/10/08 05:24:06;;;;;;;25.92;14.75;;;;;;;;;;5094157;28;20031;-40
2022/10/08 05:26:35;;;;;;;21.77;14.68;;;;;;;;;;5094102;28;20016;-41
2022/10/08 05:29:00;;;;;;;;;;;;;;;;;;5094222;28;20103;-43
2022/10/08 05:31:26;;;;;;;26.70;13.87;;;;;;;;;;5094339;28;20392;-41
2022/10/08 05:33:52;;;;;;;23.58;13.40;;;;;;;;;;5094223;28;20240;-42
2022/10/08 05:36:18;;;;;;;19.52;12.98;;;;;;;;;;5093979;28;20455;-42
2022/10/08 05:38:44;;;;;;;33.38;19.27;;;;;;;;;;5093895;28;20046;-42
2022/10/08 05:41:10;;;;;;;30.75;17.63;;;;;;;;;;5093614;28;20067;-41
2022/10/08 05:43:36;;;;;;;29.80;19.25;;;;;;;;;;5093630;28;20024;-45
2022/10/08 05:46:02;;;;;;;33.17;19.33;;;;;;;;;;5093794;28;20022;-43
2022/10/08 05:48:27;;;;;;;30.92;18.17;;;;;;;;;;5093856;28;20044;-43
2022/10/08 05:50:52;;;;;;;33.85;17.83;;;;;;;;;;5093545;28;20028;-43
2022/10/08 05:53:19;;;;;;;29.45;15.90;;;;;;;;;;5093801;28;20044;-43
2022/10/08 05:55:44;;;;;;;24.93;14.57;;;;;;;;;;5093505;28;20463;-41
2022/10/08 05:58:09;;;;;;;22.83;13.63;;;;;;;;;;5093386;28;20263;-44
2022/10/08 06:00:35;;;;;;;26.40;15.33;;;;;;;;;;5092962;28;20306;-43
2022/10/08 06:03:00;;;;;;;22.52;14.30;;;;;;;;;;5093721;28;20241;-42
2022/10/08 06:05:25;;;;;;;18.70;12.50;;;;;;;;;;5093482;28;20026;-40
2022/10/08 06:07:51;;;;;;;23.23;14.35;;;;;;;;;;5093522;28;20417;-43
2022/10/08 06:10:17;;;;;;;23.35;13.68;;;;;;;;;;5093285;28;20024;-43
2022/10/08 06:12:42;;;;;;;25.17;12.43;;;;;;;;;;5093288;28;20024;-43
2022/10/08 06:15:07;;;;;;;20.00;11.83;;;;;;;;;;5093018;28;20039;-42
2022/10/08 06:17:33;;;;;;;20.77;12.30;;;;;;;;;;5093408;28;20244;-43
2022/10/08 06:19:58;;;;;;;22.27;12.40;;;;;;;;;;5093371;28;20518;-43
2022/10/08 06:22:23;;;;;;;19.03;11.67;;;;;;;;;;5093281;28;20623;-39
2022/10/08 06:24:48;;;;;;;17.00;12.20;;;;;;;;;;5093089;28;20233;-42
2022/10/08 06:27:14;;;;;;;18.35;12.57;;;;;;;;;;5093192;28;20252;-39
2022/10/08 06:29:39;;;;;;;16.60;10.27;;;;;;;;;;5092918;28;20023;-41
2022/10/08 06:32:04;;;;;;;16.13;10.80;;;;;;;;;;5093214;28;20745;-42
2022/10/08 06:34:29;;;;;;;13.83;10.30;;;;;;;;;;5093143;28;20640;-42
2022/10/08 06:36:54;;;;;;;16.57;10.17;;;;;;;;;;5092767;28;20740;-42
2022/10/08 06:39:20;;;;;;;18.43;10.87;;;;;;;;;;5093237;28;20240;-39
2022/10/08 06:41:45;;;;;;;16.17;10.03;;;;;;;;;;5092832;28;20261;-42
2022/10/08 06:44:12;;;;;;;23.10;9.98;;;;;;;;;;5092683;28;20237;-40
2022/10/08 06:46:37;;;;;;;14.38;10.07;;;;;;;;;;5092544;28;20194;-42
2022/10/08 06:49:04;;;;;;;15.35;9.65;;;;;;;;;;5092630;28;20067;-40
2022/10/08 06:51:30;;;;;;;19.75;10.27;;;;;;;;;;5093317;28;20032;-36
2022/10/08 06:53:55;;;;;;;14.93;9.70;;;;;;;;;;5092848;28;20024;-42
2022/10/08 06:56:22;;;;;;;14.05;9.18;;;;;;;;;;5092821;28;20241;-39
2022/10/08 06:58:47;;;;;;;13.32;8.13;;;;;;;;;;5092648;28;20107;-40
2022/10/08 07:01:13;;;;;;;20.05;9.40;;;;;;;;;;5092548;28;20063;-40
2022/10/08 07:03:39;;;;;;;12.50;7.47;;;;;;;;;;5092805;28;20031;-38
2022/10/08 07:06:05;;;;;;;22.15;8.57;;;;;;;;;;5092882;28;20024;-39
2022/10/08 07:08:31;;;;;;;11.65;7.50;;;;;;;;;;5092709;28;20023;-40
2022/10/08 07:11:13;;;;;;;14.10;8.55;;;;;;;;;;5092586;28;20028;-41
2022/10/08 07:13:38;;;;;;;10.45;7.53;;;;;;;;;;5095252;28;20127;-41
2022/10/08 07:16:06;;;;;;;14.57;8.73;;;;;;;;;;5096751;28;20192;-42
2022/10/08 07:18:32;;;;;;;15.70;8.70;;;;;;;;;;5078517;28;20386;-42
2022/10/08 07:20:58;;;;;;;14.73;8.25;;;;;;;;;;5096476;28;20024;-39
2022/10/08 07:23:23;;;;;;;14.93;8.60;;;;;;;;;;5096441;28;20030;-36
2022/10/08 07:25:58;;;;;;;17.35;9.15;;;;;;;;;;5096421;28;20083;-40
2022/10/08 07:28:25;;;;;;;12.75;7.57;;;;;;;;;;5078002;28;20115;-41
2022/10/08 07:30:50;;;;;;;16.92;9.05;;;;;;;;;;5096544;28;20059;-37
2022/10/08 07:33:16;;;;;;;14.98;8.45;;;;;;;;;;5096375;28;20311;-41
2022/10/08 07:35:42;;;;;;;13.20;8.00;;;;;;;;;;5096383;28;20036;-42
2022/10/08 07:38:07;;;;;;;18.95;8.55;;;;;;;;;;5096227;28;20422;-41
2022/10/08 07:40:34;;;;;;;15.87;8.30;;;;;;;;;;5096187;28;20059;-39
2022/10/08 07:42:59;;;;;;;17.38;8.38;;;;;;;;;;5095714;28;20279;-43
2022/10/08 07:45:24;;;;;;;17.30;8.85;;;;;;;;;;5096068;28;20471;-39
2022/10/08 07:47:49;;;;;;;16.47;8.40;;;;;;;;;;5096048;28;20047;-42
2022/10/08 07:50:15;;;;;;;14.15;8.10;;;;;;;;;;5096091;28;20665;-40
2022/10/08 07:52:40;;;;;;;13.50;8.15;;;;;;;;;;5096153;28;20051;-39
2022/10/08 07:55:05;;;;;;;21.73;8.33;;;;;;;;;;5095935;28;20449;-37
2022/10/08 07:57:31;;;;;;;20.13;8.18;;;;;;;;;;5095650;28;20245;-42
2022/10/08 07:59:56;;;;;;;12.80;7.60;;;;;;;;;;5095874;28;20417;-42
2022/10/08 08:02:21;;;;;;;14.43;7.73;;;;;;;;;;5095767;28;20245;-42
2022/10/08 08:04:46;;;;;;;14.30;8.20;;;;;;;;;;5095549;28;20237;-40
2022/10/08 08:07:12;;;;;;;20.90;8.37;;;;;;;;;;5095544;28;20682;-40
2022/10/08 08:09:37;;;;;;;16.53;7.87;;;;;;;;;;5095630;28;20356;-38
2022/10/08 08:12:02;;;;;;;12.97;7.80;;;;;;;;;;5095410;28;20279;-42
2022/10/08 08:14:27;;;;;;;16.73;6.55;;;;;;;;;;5095800;28;20288;-39
2022/10/08 08:16:53;;;;;;;16.35;8.77;;;;;;;;;;5095607;28;20016;-41
2022/10/08 08:19:18;;;;;;;12.83;8.83;;;;;;;;;;5095479;28;20099;-42
2022/10/08 08:21:43;;;;;;;13.48;8.35;;;;;;;;;;5095381;28;20245;-42
2022/10/08 08:24:10;;;;;;;11.87;8.13;;;;;;;;;;5094923;28;20122;-42
2022/10/08 08:26:36;;;;;;;14.25;9.13;;;;;;;;;;5095252;28;20245;-40
2022/10/08 08:29:12;;;;;;;13.10;7.40;;;;;;;;;;5094979;28;20028;-42
2022/10/08 08:31:39;;;;;;;9.50;7.15;;;;;;;;;;5095235;28;20078;-40
2022/10/08 08:34:06;;;;;;;11.27;7.25;;;;;;;;;;5095156;28;20016;-41
2022/10/08 08:36:38;;;;;;;15.18;6.47;;;;;;;;;;5095173;28;20023;-39
2022/10/08 08:39:05;;;;;;;16.25;7.38;;;;;;;;;;5094947;28;20016;-41
2022/10/08 08:41:49;;;;;;;13.77;6.45;;;;;;;;;;5094672;28;20024;-38
2022/10/08 08:44:17;;;;;;;12.10;6.43;;;;;;;;;;5094993;28;20036;-39
2022/10/08 08:47:09;;;;;;;12.43;6.50;;;;;;;;;;5094895;28;20406;-42
2022/10/08 08:49:41;;;;;;;13.98;7.43;;;;;;;;;;5089282;28;20483;-40
2022/10/08 08:52:07;;;;;;;13.75;6.85;;;;;;;;;;5094609;28;20490;-38
2022/10/08 08:54:33;;;;;;;9.90;6.25;;;;;;;;;;5094628;28;20032;-38
2022/10/08 08:57:09;;;;;;;13.13;6.35;;;;;;;;;;5094807;28;20019;-41
2022/10/08 08:59:38;;;;;;;15.70;6.20;;;;;;;;;;5094630;28;20027;-41
2022/10/08 09:02:09;;;;;;;12.33;6.03;;;;;;;;;;5094276;28;20108;-40
2022/10/08 09:04:39;;;;;;;9.80;6.82;;;;;;;;;;5094283;28;20027;-40
2022/10/08 09:07:06;;;;;;;12.40;7.00;;;;;;;;;;5094368;28;20113;-43
2022/10/08 09:09:31;;;;;;;11.13;7.55;;;;;;;;;;5094353;28;20069;-42
2022/10/08 09:11:56;;;;;;;13.57;7.40;;;;;;;;;;5094420;28;20095;-39
2022/10/08 09:14:24;;;;;;;10.68;6.40;;;;;;;;;;5093986;28;20103;-42
2022/10/08 09:16:51;;;;;;;12.85;6.45;;;;;;;;;;5094155;28;20360;-41
2022/10/08 09:19:16;;;;;;;13.65;6.43;;;;;;;;;;5094609;28;20035;-40
2022/10/08 09:21:41;;;;;;;9.80;6.50;;;;;;;;;;5094181;28;20028;-40
2022/10/08 09:24:07;;;;;;;15.10;6.30;;;;;;;;;;5094259;28;20016;-39
2022/10/08 09:26:33;;;;;;;10.73;5.75;;;;;;;;;;5094142;28;20769;-43
2022/10/08 09:28:59;;;;;;;20.40;6.00;;;;;;;;;;5092838;28;20024;-40
2022/10/08 09:31:51;;;;;;;10.20;6.28;;;;;;;;;;5093404;28;20020;-39
2022/10/08 09:34:17;;;;;;;13.10;6.10;;;;;;;;;;5087730;28;20557;-41
2022/10/08 09:36:44;;;;;;;12.93;6.22;;;;;;;;;;5093243;28;20016;-38
2022/10/08 09:39:33;;;;;;;12.20;5.60;;;;;;;;;;5093874;28;20057;-40
2022/10/08 09:42:13;;;;;;;14.23;6.85;;;;;;;;;;5079921;28;20118;-39
2022/10/08 09:44:45;;;;;;;8.07;5.85;;;;;;;;;;5094054;28;20074;-42
2022/10/08 09:47:13;;;;;;;9.68;5.95;;;;;;;;;;5093721;28;20455;-39
2022/10/08 09:49:38;;;;;;;17.70;5.88;;;;;;;;;;5071541;28;20040;-42
2022/10/08 09:52:05;;;;;;;11.20;6.65;;;;;;;;;;5072970;28;20353;-42
2022/10/08 09:54:36;;;;;;;14.57;5.80;;;;;;;;;;5073012;28;20028;-35
2022/10/08 09:57:01;;;;;;;9.30;5.85;;;;;;;;;;5073446;28;20020;-40
2022/10/08 09:59:33;;;;;;;13.70;5.55;;;;;;;;;;5073523;28;20030;-39
2022/10/08 10:01:59;;;;;;;12.52;5.85;;;;;;;;;;5071329;28;20028;-42
2022/10/08 10:04:27;;;;;;;12.25;6.22;;;;;;;;;;5072378;28;20035;-40
2022/10/08 10:06:53;;;;;;;11.47;5.27;;;;;;;;;;5071449;28;20065;-42
2022/10/08 10:09:37;;;;;;;12.25;5.80;;;;;;;;;;5072877;28;20046;-42
2022/10/08 10:12:08;;;;;;;10.43;5.63;;;;;;;;;;5073198;28;20028;-42
2022/10/08 10:14:42;;;;;;;12.50;5.13;;;;;;;;;;5072810;28;20032;-39
2022/10/08 10:17:19;;;;;;;7.70;4.93;;;;;;;;;;5072065;28;20036;-40
2022/10/08 10:19:48;;;;;;;11.25;4.80;;;;;;;;;;5072453;28;20032;-39
2022/10/08 10:22:19;;;;;;;17.60;6.32;;;;;;;;;;5073404;28;20031;-42
2022/10/08 10:24:54;;;;;;;7.28;5.20;;;;;;;;;;5072320;28;20020;-39
2022/10/08 10:27:36;;;;;;;10.68;4.85;;;;;;;;;;5073015;28;20024;-40
2022/10/08 10:30:04;;;;;;;14.88;5.10;;;;;;;;;;5072770;28;20024;-43
2022/10/08 10:32:33;;;;;;;7.93;5.43;;;;;;;;;;5072884;28;20460;-39
2022/10/08 10:35:10;;;;;;;8.35;4.85;;;;;;;;;;5072635;28;20032;-40
2022/10/08 10:37:38;;;;;;;9.40;4.50;;;;;;;;;;5072775;28;20032;-42
2022/10/08 10:40:22;;;;;;;8.50;4.63;;;;;;;;;;5072686;28;20469;-37
2022/10/08 10:42:54;;;;;;;10.10;5.30;;;;;;;;;;5071992;28;20024;-42
2022/10/08 10:45:22;;;;;;;8.18;4.82;;;;;;;;;;5072681;28;20458;-42
2022/10/08 10:47:49;;;;;;;8.35;5.40;;;;;;;;;;5079850;28;20021;-39
2022/10/08 10:50:21;;;;;;;14.50;5.90;;;;;;;;;;5099096;28;20115;-42
2022/10/08 10:52:49;;;;;;;12.25;4.85;;;;;;;;;;5099502;28;20419;-42
2022/10/08 10:55:33;;;;;;;10.38;4.80;;;;;;;;;;5099366;28;20032;-41
2022/10/08 10:58:01;;;;;;;13.38;4.70;;;;;;;;;;5099669;28;20035;-42
2022/10/08 11:00:30;;;;;;;15.65;5.38;;;;;;;;;;5100036;28;20024;-42
2022/10/08 11:03:07;;;;;;;9.95;4.75;;;;;;;;;;5098920;28;20072;-42
2022/10/08 11:05:34;;;;;;;11.88;4.80;;;;;;;;;;5098432;28;20027;-42
2022/10/08 11:08:06;;;;;;;7.25;4.68;;;;;;;;;;5099004;28;20012;-37
2022/10/08 11:10:40;;;;;;;8.45;4.20;;;;;;;;;;5097775;28;20047;-42
2022/10/08 11:13:20;;;;;;;6.88;4.05;;;;;;;;;;5097573;28;20032;-39
2022/10/08 11:15:52;;;;;;;8.68;4.53;;;;;;;;;;5099115;28;20040;-39
2022/10/08 11:18:20;;;;;;;9.63;4.40;;;;;;;;;;5098968;28;20109;-41
2022/10/08 11:21:06;;;;;;;9.87;4.63;;;;;;;;;;5099411;28;20161;-39
2022/10/08 11:23:40;;;;;;;11.65;4.45;;;;;;;;;;5098441;28;20285;-42
2022/10/08 11:26:24;;;;;;;7.97;4.45;;;;;;;;;;5099140;28;20112;-41
2022/10/08 11:28:52;;;;;;;8.55;4.68;;;;;;;;;;5098664;28;20028;-37
2022/10/08 11:31:24;;;;;;;12.10;3.80;;;;;;;;;;5098872;28;20035;-43
2022/10/08 11:33:50;;;;;;;7.18;4.93;;;;;;;;;;5097715;28;20368;-42
2022/10/08 11:36:20;;;;;;;13.07;6.25;;;;;;;;;;5098170;28;20043;-41
2022/10/08 11:38:54;;;;;;;12.65;5.18;;;;;;;;;;5097836;28;20103;-39
2022/10/08 11:41:30;;;;;;;11.85;4.95;;;;;;;;;;5097132;28;20032;-40
2022/10/08 11:44:00;;;;;;;6.68;5.15;;;;;;;;;;5098661;28;20031;-40
2022/10/08 11:46:29;;;;;;;15.65;4.97;;;;;;;;;;5098478;28;20107;-41
2022/10/08 11:48:55;;;;;;;;;;;;;;;;;;5099124;28;20052;-42
2022/10/08 11:51:20;;;;;;;8.50;3.85;;;;;;;;;;5098877;28;19903;-40
2022/10/08 11:53:57;;;;;;;8.02;4.50;;;;;;;;;;5098497;28;20027;-38
2022/10/08 11:56:23;;;;;;;11.13;5.15;;;;;;;;;;5099048;28;20024;-42
2022/10/08 11:58:52;;;;;;;13.80;4.53;;;;;;;;;;5095959;28;20516;-41
2022/10/08 12:01:17;;;;;;;10.02;4.50;;;;;;;;;;5095655;28;20332;-41
2022/10/08 12:03:44;;;;;;;7.90;4.13;;;;;;;;;;5095933;28;20485;-39
2022/10/08 12:06:16;;;;;;;10.05;3.80;;;;;;;;;;5095548;28;20241;-41
2022/10/08 12:08:51;;;;;;;16.40;4.40;;;;;;;;;;5095562;28;20024;-41
2022/10/08 12:11:34;;;;;;;6.60;4.47;;;;;;;;;;5095528;28;20032;-40
2022/10/08 12:14:08;;;;;;;5.43;4.07;;;;;;;;;;5095276;28;20462;-40
2022/10/08 12:16:52;;;;;;;8.98;4.00;;;;;;;;;;5095093;28;20045;-39
2022/10/08 12:19:35;;;;;;;7.97;4.15;;;;;;;;;;5095062;28;20028;-41
2022/10/08 12:22:00;;;;;;;6.93;3.85;;;;;;;;;;5095076;28;20020;-42
2022/10/08 12:24:38;;;;;;;8.33;4.00;;;;;;;;;;5095001;28;20020;-42
2022/10/08 12:27:23;;;;;;;7.20;3.63;;;;;;;;;;5093894;28;20035;-42
2022/10/08 12:29:57;;;;;;;6.50;4.47;;;;;;;;;;5077104;28;20024;-40
2022/10/08 12:32:24;;;;;;;9.75;4.28;;;;;;;;;;5095278;28;20070;-40
2022/10/08 12:34:50;;;;;;;9.23;4.68;;;;;;;;;;5094912;28;20119;-42
2022/10/08 12:37:42;;;;;;;9.75;4.57;;;;;;;;;;5094841;28;20138;-41
2022/10/08 12:40:32;;;;;;;12.00;4.68;;;;;;;;;;5094088;28;20028;-41
2022/10/08 12:43:16;;;;;;;5.97;4.05;;;;;;;;;;5094242;28;20034;-40
2022/10/08 12:46:16;;;;;;;8.10;4.38;;;;;;;;;;5094305;28;20036;-41
2022/10/08 12:49:02;;;;;;;5.40;3.87;;;;;;;;;;4992142;28;20108;-41
2022/10/08 12:51:45;;;;;;;8.15;3.97;;;;;;;;;;5045686;28;20247;-41
2022/10/08 12:54:18;;;;;;;6.75;4.30;;;;;;;;;;5094055;28;20105;-38
2022/10/08 12:56:43;;;;;;;12.45;3.80;;;;;;;;;;5094224;28;20084;-42
2022/10/08 12:59:10;;;;;;;5.53;3.63;;;;;;;;;;5093720;28;20526;-42
2022/10/08 13:01:35;;;;;;;7.50;4.03;;;;;;;;;;5094433;28;20085;-38
2022/10/08 13:04:14;;;;;;;6.70;4.07;;;;;;;;;;5094595;28;20451;-40
2022/10/08 13:06:40;;;;;;;6.57;4.22;;;;;;;;;;5094556;28;20027;-42
2022/10/08 13:09:12;;;;;;;5.00;4.30;;;;;;;;;;5093573;28;20272;-41
2022/10/08 13:11:38;;;;;;;6.05;4.43;;;;;;;;;;5091523;28;20023;-41
2022/10/08 13:14:03;;;;;;;11.48;4.07;;;;;;;;;;5092607;28;20023;-40
2022/10/08 13:16:43;;;;;;;8.23;4.10;;;;;;;;;;5092828;28;20041;-43
2022/10/08 13:19:08;;;;;;;;;;;;;;;;;;5093763;28;20048;-39
2022/10/08 13:21:35;;;;;;;7.28;4.10;;;;;;;;;;5093468;28;19947;-43
2022/10/08 13:24:10;;;;;;;10.20;4.13;;;;;;;;;;5094283;28;20460;-38
2022/10/08 13:26:36;;;;;;;11.70;4.45;;;;;;;;;;5093783;28;20367;-41
2022/10/08 13:29:19;;;;;;;8.88;4.20;;;;;;;;;;5094087;28;20027;-42
2022/10/08 13:31:51;;;;;;;12.18;4.20;;;;;;;;;;5094155;28;20024;-40
2022/10/08 13:34:17;;;;;;;7.55;4.25;;;;;;;;;;5093696;28;20036;-43
2022/10/08 13:36:53;;;;;;;7.57;3.88;;;;;;;;;;5093853;28;20012;-41
2022/10/08 13:39:22;;;;;;;6.15;3.95;;;;;;;;;;5094144;28;20024;-41
2022/10/08 13:41:50;;;;;;;9.73;4.28;;;;;;;;;;5093818;28;20051;-39
2022/10/08 13:44:16;;;;;;;6.93;4.20;;;;;;;;;;5093935;28;20024;-41
2022/10/08 13:46:41;;;;;;;8.98;4.07;;;;;;;;;;5093708;28;20028;-37
2022/10/08 13:49:17;;;;;;;10.83;3.90;;;;;;;;;;5093790;28;20036;-40
2022/10/08 13:51:42;;;;;;;9.40;4.03;;;;;;;;;;5093791;28;20031;-37
2022/10/08 13:54:08;;;;;;;6.70;4.20;;;;;;;;;;5093898;28;20017;-42
2022/10/08 13:56:34;;;;;;;10.68;4.70;;;;;;;;;;5093468;28;20654;-40
2022/10/08 13:58:59;;;;;;;6.47;4.20;;;;;;;;;;5093515;28;20012;-40
2022/10/08 14:01:24;;;;;;;5.13;3.80;;;;;;;;;;5093458;28;20249;-42
2022/10/08 14:03:49;;;;;;;9.33;4.23;;;;;;;;;;5093509;28;20117;-39
2022/10/08 14:06:14;;;;;;;10.83;4.50;;;;;;;;;;5093629;28;20052;-40
2022/10/08 14:08:40;;;;;;;8.80;4.23;;;;;;;;;;5093577;28;20020;-37
2022/10/08 14:11:05;;;;;;;5.87;3.97;;;;;;;;;;5093300;28;20043;-43
2022/10/08 14:13:30;;;;;;;11.90;4.10;;;;;;;;;;5093231;28;20008;-42
2022/10/08 14:15:56;;;;;;;9.13;4.65;;;;;;;;;;5093007;28;20044;-38
2022/10/08 14:18:22;;;;;;;24.53;4.80;;;;;;;;;;5093252;28;20690;-41
2022/10/08 14:20:48;;;;;;;7.68;4.32;;;;;;;;;;5092760;28;20031;-41
2022/10/08 14:23:14;;;;;;;9.23;3.85;;;;;;;;;;5093056;28;20027;-43
2022/10/08 14:25:39;;;;;;;8.80;4.70;;;;;;;;;;5093048;28;20367;-42
2022/10/08 14:28:04;;;;;;;8.30;4.37;;;;;;;;;;5093094;28;20055;-41
2022/10/08 14:30:29;;;;;;;34.43;17.27;;;;;;;;;;5092971;28;20603;-42
2022/10/08 14:32:55;;;;;;;90.00;42.60;;;;;;;;;;5093516;28;20331;-37
2022/10/08 14:35:20;;;;;;;98.18;51.70;;;;;;;;;;5093012;28;20281;-40
2022/10/08 14:37:46;;;;;;;80.00;39.33;;;;;;;;;;5093094;28;20032;-39